sensor_id;sensor_type;location;lat;lon;timestamp;P1;P2;P0
20157;PMS5003;10239;56.820;24.416;2024-01-07T00:01:14;1.50;1.50;1.00
20157;PMS5003;10239;56.820;24.416;2024-01-07T00:03:42;1.00;1.00;0.50
20157;PMS5003;10239;56.820;24.416;2024-01-07T00:06:10;4.00;4.00;3.00
20157;PMS5003;10239;56.820;24.416;2024-01-07T00:08:38;2.50;2.50;2.50
20157;PMS5003;10239;56.820;24.416;2024-01-07T00:11:05;2.00;2.00;0.50
20157;PMS5003;10239;56.820;24.416;2024-01-07T00:13:33;3.50;3.00;1.00
20157;PMS5003;10239;56.820;24.416;2024-01-07T00:16:01;1.00;1.00;0.00
20157;PMS5003;10239;56.820;24.416;2024-01-07T00:18:28;3.75;1.50;0.50
20157;PMS5003;10239;56.820;24.416;2024-01-07T00:20:56;3.00;3.00;1.50
20157;PMS5003;10239;56.820;24.416;2024-01-07T00:23:24;7.00;4.00;3.00
20157;PMS5003;10239;56.820;24.416;2024-01-07T00:25:52;9.75;6.75;1.50
20157;PMS5003;10239;56.820;24.416;2024-01-07T00:28:20;6.00;6.00;4.00
20157;PMS5003;10239;56.820;24.416;2024-01-07T00:30:47;1.50;1.50;1.00
20157;PMS5003;10239;56.820;24.416;2024-01-07T00:33:15;3.00;3.00;3.00
20157;PMS5003;10239;56.820;24.416;2024-01-07T00:35:43;2.25;2.25;1.00
20157;PMS5003;10239;56.820;24.416;2024-01-07T00:38:10;5.00;5.00;4.00
20157;PMS5003;10239;56.820;24.416;2024-01-07T00:40:38;3.00;3.00;1.00
20157;PMS5003;10239;56.820;24.416;2024-01-07T00:43:05;1.50;0.00;0.00
20157;PMS5003;10239;56.820;24.416;2024-01-07T00:45:33;2.50;2.50;2.50
20157;PMS5003;10239;56.820;24.416;2024-01-07T00:48:01;3.00;3.00;3.00
20157;PMS5003;10239;56.820;24.416;2024-01-07T00:50:29;4.00;4.00;1.00
20157;PMS5003;10239;56.820;24.416;2024-01-07T00:52:56;0.00;0.00;0.00
20157;PMS5003;10239;56.820;24.416;2024-01-07T00:55:24;4.00;4.00;1.00
20157;PMS5003;10239;56.820;24.416;2024-01-07T00:57:51;3.00;3.00;1.00
20157;PMS5003;10239;56.820;24.416;2024-01-07T01:00:19;3.00;3.00;1.00
20157;PMS5003;10239;56.820;24.416;2024-01-07T01:02:47;3.75;3.75;1.00
20157;PMS5003;10239;56.820;24.416;2024-01-07T01:05:15;1.00;1.00;0.75
20157;PMS5003;10239;56.820;24.416;2024-01-07T01:07:42;1.00;1.00;1.00
20157;PMS5003;10239;56.820;24.416;2024-01-07T01:10:10;4.50;3.75;3.25
20157;PMS5003;10239;56.820;24.416;2024-01-07T01:12:37;1.00;1.00;1.00
20157;PMS5003;10239;56.820;24.416;2024-01-07T01:15:05;1.25;1.25;1.25
20157;PMS5003;10239;56.820;24.416;2024-01-07T01:17:32;3.75;3.75;3.75
20157;PMS5003;10239;56.820;24.416;2024-01-07T01:20:00;2.00;2.00;0.25
20157;PMS5003;10239;56.820;24.416;2024-01-07T01:22:27;4.00;3.00;1.50
20157;PMS5003;10239;56.820;24.416;2024-01-07T01:24:55;4.00;2.00;1.00
20157;PMS5003;10239;56.820;24.416;2024-01-07T01:27:22;1.75;1.75;0.75
20157;PMS5003;10239;56.820;24.416;2024-01-07T01:29:50;4.00;4.00;3.00
20157;PMS5003;10239;56.820;24.416;2024-01-07T01:32:18;4.00;1.00;0.50
20157;PMS5003;10239;56.820;24.416;2024-01-07T01:34:46;1.00;1.00;0.00
20157;PMS5003;10239;56.820;24.416;2024-01-07T01:37:14;0.75;0.75;0.50
20157;PMS5003;10239;56.820;24.416;2024-01-07T01:39:42;1.75;1.00;0.50
20157;PMS5003;10239;56.820;24.416;2024-01-07T01:42:09;3.00;3.00;1.00
20157;PMS5003;10239;56.820;24.416;2024-01-07T01:44:37;5.00;5.00;3.25
20157;PMS5003;10239;56.820;24.416;2024-01-07T01:47:05;3.75;3.75;1.50
20157;PMS5003;10239;56.820;24.416;2024-01-07T01:49:34;0.75;0.75;0.75
20157;PMS5003;10239;56.820;24.416;2024-01-07T01:52:04;4.50;2.50;0.00
20157;PMS5003;10239;56.820;24.416;2024-01-07T01:54:32;1.00;1.00;0.00
20157;PMS5003;10239;56.820;24.416;2024-01-07T01:57:00;2.50;2.50;1.00
20157;PMS5003;10239;56.820;24.416;2024-01-07T01:59:29;3.00;3.00;1.50
20157;PMS5003;10239;56.820;24.416;2024-01-07T02:01:58;2.75;2.75;2.25
20157;PMS5003;10239;56.820;24.416;2024-01-07T02:04:28;6.75;6.75;3.00
20157;PMS5003;10239;56.820;24.416;2024-01-07T02:06:56;4.75;4.75;1.50
20157;PMS5003;10239;56.820;24.416;2024-01-07T02:09:24;1.75;1.75;0.50
20157;PMS5003;10239;56.820;24.416;2024-01-07T02:12:04;0.75;0.75;0.50
20157;PMS5003;10239;56.820;24.416;2024-01-07T02:14:32;0.00;0.00;0.00
20157;PMS5003;10239;56.820;24.416;2024-01-07T02:17:00;4.00;4.00;1.00
20157;PMS5003;10239;56.820;24.416;2024-01-07T02:19:28;6.00;6.00;2.00
20157;PMS5003;10239;56.820;24.416;2024-01-07T02:21:56;2.50;2.50;1.50
20157;PMS5003;10239;56.820;24.416;2024-01-07T02:24:23;4.00;4.00;3.25
20157;PMS5003;10239;56.820;24.416;2024-01-07T02:26:51;6.00;6.00;4.00
20157;PMS5003;10239;56.820;24.416;2024-01-07T02:29:19;4.00;4.00;2.00
20157;PMS5003;10239;56.820;24.416;2024-01-07T02:31:46;3.25;3.25;2.00
20157;PMS5003;10239;56.820;24.416;2024-01-07T02:34:14;9.00;6.25;4.00
20157;PMS5003;10239;56.820;24.416;2024-01-07T02:36:41;2.00;2.00;1.00
20157;PMS5003;10239;56.820;24.416;2024-01-07T02:39:09;0.00;0.00;0.00
20157;PMS5003;10239;56.820;24.416;2024-01-07T02:41:36;5.00;5.00;5.00
20157;PMS5003;10239;56.820;24.416;2024-01-07T02:44:04;0.00;0.00;0.00
20157;PMS5003;10239;56.820;24.416;2024-01-07T02:46:32;0.00;0.00;0.00
20157;PMS5003;10239;56.820;24.416;2024-01-07T02:49:00;5.50;3.25;0.75
20157;PMS5003;10239;56.820;24.416;2024-01-07T02:51:28;1.00;1.00;1.00
20157;PMS5003;10239;56.820;24.416;2024-01-07T02:53:56;0.00;0.00;0.00
20157;PMS5003;10239;56.820;24.416;2024-01-07T02:56:23;0.00;0.00;0.00
20157;PMS5003;10239;56.820;24.416;2024-01-07T02:58:51;0.25;0.25;0.00
20157;PMS5003;10239;56.820;24.416;2024-01-07T03:01:21;3.50;2.50;1.00
20157;PMS5003;10239;56.820;24.416;2024-01-07T03:03:50;3.25;3.25;1.50
20157;PMS5003;10239;56.820;24.416;2024-01-07T03:06:17;0.50;0.50;0.25
20157;PMS5003;10239;56.820;24.416;2024-01-07T03:08:45;4.00;1.00;0.00
20157;PMS5003;10239;56.820;24.416;2024-01-07T03:11:14;9.25;6.50;5.75
20157;PMS5003;10239;56.820;24.416;2024-01-07T03:13:42;7.00;7.00;6.25
20157;PMS5003;10239;56.820;24.416;2024-01-07T03:16:18;6.50;6.50;3.25
20157;PMS5003;10239;56.820;24.416;2024-01-07T03:18:49;2.75;0.75;0.00
20157;PMS5003;10239;56.820;24.416;2024-01-07T03:21:20;3.00;3.00;0.25
20157;PMS5003;10239;56.820;24.416;2024-01-07T03:23:49;10.00;6.00;3.00
20157;PMS5003;10239;56.820;24.416;2024-01-07T03:26:18;1.00;1.00;1.00
20157;PMS5003;10239;56.820;24.416;2024-01-07T03:28:46;1.00;1.00;0.50
20157;PMS5003;10239;56.820;24.416;2024-01-07T03:31:15;1.00;1.00;1.00
20157;PMS5003;10239;56.820;24.416;2024-01-07T03:33:43;4.50;2.00;1.00
20157;PMS5003;10239;56.820;24.416;2024-01-07T03:36:11;6.50;5.50;3.00
20157;PMS5003;10239;56.820;24.416;2024-01-07T03:38:41;0.00;0.00;0.00
20157;PMS5003;10239;56.820;24.416;2024-01-07T03:41:08;5.25;3.50;0.25
20157;PMS5003;10239;56.820;24.416;2024-01-07T03:43:42;0.25;0.25;0.00
20157;PMS5003;10239;56.820;24.416;2024-01-07T03:46:09;0.00;0.00;0.00
20157;PMS5003;10239;56.820;24.416;2024-01-07T03:48:37;0.50;0.50;0.25
20157;PMS5003;10239;56.820;24.416;2024-01-07T03:51:05;4.00;4.00;3.75
20157;PMS5003;10239;56.820;24.416;2024-01-07T03:53:32;2.00;2.00;2.00
20157;PMS5003;10239;56.820;24.416;2024-01-07T03:56:00;6.00;6.00;3.50
20157;PMS5003;10239;56.820;24.416;2024-01-07T03:58:28;5.75;5.75;3.50
20157;PMS5003;10239;56.820;24.416;2024-01-07T04:00:55;1.00;1.00;0.75
20157;PMS5003;10239;56.820;24.416;2024-01-07T04:03:23;2.00;2.00;0.00
20157;PMS5003;10239;56.820;24.416;2024-01-07T04:05:50;3.00;3.00;3.00
20157;PMS5003;10239;56.820;24.416;2024-01-07T04:08:18;3.75;3.75;2.50
20157;PMS5003;10239;56.820;24.416;2024-01-07T04:10:45;3.25;3.25;2.50
20157;PMS5003;10239;56.820;24.416;2024-01-07T04:13:13;2.50;2.50;2.00
20157;PMS5003;10239;56.820;24.416;2024-01-07T04:15:41;5.50;2.50;1.00
20157;PMS5003;10239;56.820;24.416;2024-01-07T04:18:09;7.00;5.00;4.00
20157;PMS5003;10239;56.820;24.416;2024-01-07T04:20:36;4.00;3.00;1.00
20157;PMS5003;10239;56.820;24.416;2024-01-07T04:23:04;4.00;4.00;2.25
20157;PMS5003;10239;56.820;24.416;2024-01-07T04:25:32;3.00;3.00;1.00
20157;PMS5003;10239;56.820;24.416;2024-01-07T04:27:59;3.00;0.75;0.75
20157;PMS5003;10239;56.820;24.416;2024-01-07T04:30:27;2.25;0.25;0.00
20157;PMS5003;10239;56.820;24.416;2024-01-07T04:32:55;2.50;2.50;1.00
20157;PMS5003;10239;56.820;24.416;2024-01-07T04:35:22;4.50;2.75;1.50
20157;PMS5003;10239;56.820;24.416;2024-01-07T04:37:50;0.00;0.00;0.00
20157;PMS5003;10239;56.820;24.416;2024-01-07T04:40:17;2.50;2.50;1.50
20157;PMS5003;10239;56.820;24.416;2024-01-07T04:42:45;3.00;3.00;1.00
20157;PMS5003;10239;56.820;24.416;2024-01-07T04:45:13;3.00;3.00;2.00
20157;PMS5003;10239;56.820;24.416;2024-01-07T04:47:40;3.00;3.00;0.75
20157;PMS5003;10239;56.820;24.416;2024-01-07T04:50:08;4.50;3.00;1.00
20157;PMS5003;10239;56.820;24.416;2024-01-07T04:52:36;3.25;2.25;1.00
20157;PMS5003;10239;56.820;24.416;2024-01-07T04:55:03;6.00;4.00;3.00
20157;PMS5003;10239;56.820;24.416;2024-01-07T04:57:31;3.00;3.00;1.00
20157;PMS5003;10239;56.820;24.416;2024-01-07T04:59:59;6.75;6.75;4.00
20157;PMS5003;10239;56.820;24.416;2024-01-07T05:02:28;5.50;4.00;2.00
20157;PMS5003;10239;56.820;24.416;2024-01-07T05:04:56;6.00;3.00;3.00
20157;PMS5003;10239;56.820;24.416;2024-01-07T05:07:23;3.00;3.00;3.00
20157;PMS5003;10239;56.820;24.416;2024-01-07T05:09:51;3.75;2.00;1.00
20157;PMS5003;10239;56.820;24.416;2024-01-07T05:12:18;9.00;7.00;4.00
20157;PMS5003;10239;56.820;24.416;2024-01-07T05:14:46;0.00;0.00;0.00
20157;PMS5003;10239;56.820;24.416;2024-01-07T05:17:13;4.00;4.00;3.50
20157;PMS5003;10239;56.820;24.416;2024-01-07T05:19:40;3.25;3.25;2.50
20157;PMS5003;10239;56.820;24.416;2024-01-07T05:22:08;4.00;2.50;1.50
20157;PMS5003;10239;56.820;24.416;2024-01-07T05:24:36;1.00;1.00;1.00
20157;PMS5003;10239;56.820;24.416;2024-01-07T05:27:05;0.00;0.00;0.00
20157;PMS5003;10239;56.820;24.416;2024-01-07T05:29:33;5.00;2.50;0.00
20157;PMS5003;10239;56.820;24.416;2024-01-07T05:32:01;6.50;6.50;3.00
20157;PMS5003;10239;56.820;24.416;2024-01-07T05:34:29;7.25;7.25;4.50
20157;PMS5003;10239;56.820;24.416;2024-01-07T05:36:57;1.00;1.00;0.25
20157;PMS5003;10239;56.820;24.416;2024-01-07T05:39:25;10.00;7.25;5.00
20157;PMS5003;10239;56.820;24.416;2024-01-07T05:41:52;1.50;1.50;1.00
20157;PMS5003;10239;56.820;24.416;2024-01-07T05:44:19;6.00;3.75;2.00
20157;PMS5003;10239;56.820;24.416;2024-01-07T05:46:47;9.50;8.50;4.50
20157;PMS5003;10239;56.820;24.416;2024-01-07T05:49:14;0.00;0.00;0.00
20157;PMS5003;10239;56.820;24.416;2024-01-07T05:51:42;9.00;9.00;4.50
20157;PMS5003;10239;56.820;24.416;2024-01-07T05:54:09;1.00;1.00;0.00
20157;PMS5003;10239;56.820;24.416;2024-01-07T05:56:40;2.00;1.25;1.25
20157;PMS5003;10239;56.820;24.416;2024-01-07T05:59:08;3.75;3.75;3.00
20157;PMS5003;10239;56.820;24.416;2024-01-07T06:01:36;12.00;3.00;1.00
20157;PMS5003;10239;56.820;24.416;2024-01-07T06:04:03;1.75;1.75;0.75
20157;PMS5003;10239;56.820;24.416;2024-01-07T06:06:30;1.00;1.00;0.00
20157;PMS5003;10239;56.820;24.416;2024-01-07T06:08:59;2.50;2.00;2.00
20157;PMS5003;10239;56.820;24.416;2024-01-07T06:11:26;6.25;6.25;5.50
20157;PMS5003;10239;56.820;24.416;2024-01-07T06:13:53;6.25;4.50;3.25
20157;PMS5003;10239;56.820;24.416;2024-01-07T06:16:20;6.00;6.00;3.75
20157;PMS5003;10239;56.820;24.416;2024-01-07T06:18:48;3.50;3.50;3.00
20157;PMS5003;10239;56.820;24.416;2024-01-07T06:21:15;3.50;3.50;3.00
20157;PMS5003;10239;56.820;24.416;2024-01-07T06:23:43;0.50;0.50;0.00
20157;PMS5003;10239;56.820;24.416;2024-01-07T06:26:10;3.75;3.75;1.00
20157;PMS5003;10239;56.820;24.416;2024-01-07T06:28:37;5.00;3.75;3.25
20157;PMS5003;10239;56.820;24.416;2024-01-07T06:31:05;8.50;6.00;1.00
20157;PMS5003;10239;56.820;24.416;2024-01-07T06:33:32;1.75;1.00;1.00
20157;PMS5003;10239;56.820;24.416;2024-01-07T06:36:00;3.00;3.00;1.00
20157;PMS5003;10239;56.820;24.416;2024-01-07T06:38:28;1.50;1.00;0.00
20157;PMS5003;10239;56.820;24.416;2024-01-07T06:40:55;8.25;8.25;4.00
20157;PMS5003;10239;56.820;24.416;2024-01-07T06:43:29;4.00;3.25;1.50
20157;PMS5003;10239;56.820;24.416;2024-01-07T06:45:56;1.50;1.50;1.00
20157;PMS5003;10239;56.820;24.416;2024-01-07T06:48:24;6.75;6.75;4.00
20157;PMS5003;10239;56.820;24.416;2024-01-07T06:50:51;8.25;8.25;5.50
20157;PMS5003;10239;56.820;24.416;2024-01-07T06:53:19;4.00;2.50;2.50
20157;PMS5003;10239;56.820;24.416;2024-01-07T06:55:47;3.00;0.75;0.50
20157;PMS5003;10239;56.820;24.416;2024-01-07T06:58:15;2.75;2.75;2.50
20157;PMS5003;10239;56.820;24.416;2024-01-07T07:00:43;5.00;5.00;0.75
20157;PMS5003;10239;56.820;24.416;2024-01-07T07:03:10;1.00;1.00;1.00
20157;PMS5003;10239;56.820;24.416;2024-01-07T07:05:38;0.25;0.25;0.00
20157;PMS5003;10239;56.820;24.416;2024-01-07T07:08:05;1.00;1.00;1.00
20157;PMS5003;10239;56.820;24.416;2024-01-07T07:10:33;6.50;3.75;2.00
20157;PMS5003;10239;56.820;24.416;2024-01-07T07:13:01;0.50;0.50;0.00
20157;PMS5003;10239;56.820;24.416;2024-01-07T07:15:28;2.50;1.00;0.50
20157;PMS5003;10239;56.820;24.416;2024-01-07T07:17:56;2.00;2.00;1.00
20157;PMS5003;10239;56.820;24.416;2024-01-07T07:20:24;1.00;1.00;0.00
20157;PMS5003;10239;56.820;24.416;2024-01-07T07:22:51;3.00;3.00;1.00
20157;PMS5003;10239;56.820;24.416;2024-01-07T07:25:19;2.50;0.50;0.50
20157;PMS5003;10239;56.820;24.416;2024-01-07T07:27:47;4.50;4.50;1.00
20157;PMS5003;10239;56.820;24.416;2024-01-07T07:30:15;2.50;2.50;0.75
20157;PMS5003;10239;56.820;24.416;2024-01-07T07:32:43;3.00;3.00;1.00
20157;PMS5003;10239;56.820;24.416;2024-01-07T07:35:11;1.00;0.00;0.00
20157;PMS5003;10239;56.820;24.416;2024-01-07T07:37:39;4.00;4.00;3.00
20157;PMS5003;10239;56.820;24.416;2024-01-07T07:40:06;3.00;1.00;0.00
20157;PMS5003;10239;56.820;24.416;2024-01-07T07:42:34;9.00;6.00;6.00
20157;PMS5003;10239;56.820;24.416;2024-01-07T07:45:03;3.25;2.00;0.00
20157;PMS5003;10239;56.820;24.416;2024-01-07T07:47:31;6.50;4.00;3.00
20157;PMS5003;10239;56.820;24.416;2024-01-07T07:49:58;6.00;3.00;1.00
20157;PMS5003;10239;56.820;24.416;2024-01-07T07:52:27;3.75;3.00;0.25
20157;PMS5003;10239;56.820;24.416;2024-01-07T07:54:55;6.67;6.33;1.00
20157;PMS5003;10239;56.820;24.416;2024-01-07T07:57:22;12.00;12.00;4.67
20157;PMS5003;10239;56.820;24.416;2024-01-07T07:59:51;7.00;5.33;1.00
20157;PMS5003;10239;56.820;24.416;2024-01-07T08:02:19;10.67;10.67;4.00
20157;PMS5003;10239;56.820;24.416;2024-01-07T08:04:47;13.00;10.00;5.33
20157;PMS5003;10239;56.820;24.416;2024-01-07T08:07:15;8.67;8.33;3.67
20157;PMS5003;10239;56.820;24.416;2024-01-07T08:09:43;12.75;10.75;6.00
20157;PMS5003;10239;56.820;24.416;2024-01-07T08:12:10;18.25;15.25;6.25
20157;PMS5003;10239;56.820;24.416;2024-01-07T08:14:38;25.00;13.00;6.25
20157;PMS5003;10239;56.820;24.416;2024-01-07T08:17:08;29.00;16.00;8.50
20157;PMS5003;10239;56.820;24.416;2024-01-07T08:19:36;9.00;4.00;0.25
20157;PMS5003;10239;56.820;24.416;2024-01-07T08:22:04;9.50;6.00;2.00
20157;PMS5003;10239;56.820;24.416;2024-01-07T08:24:32;13.75;13.00;6.50
20157;PMS5003;10239;56.820;24.416;2024-01-07T08:26:59;12.25;10.25;6.25
20157;PMS5003;10239;56.820;24.416;2024-01-07T08:29:27;17.00;13.75;7.00
20157;PMS5003;10239;56.820;24.416;2024-01-07T08:31:55;20.50;18.50;9.00
20157;PMS5003;10239;56.820;24.416;2024-01-07T08:34:23;36.00;13.00;9.00
20157;PMS5003;10239;56.820;24.416;2024-01-07T08:36:51;26.75;18.50;9.00
20157;PMS5003;10239;56.820;24.416;2024-01-07T08:39:20;24.50;18.00;9.75
20157;PMS5003;10239;56.820;24.416;2024-01-07T08:41:47;33.50;21.50;9.50
20157;PMS5003;10239;56.820;24.416;2024-01-07T08:44:15;21.75;13.50;6.75
20157;PMS5003;10239;56.820;24.416;2024-01-07T08:46:42;37.50;34.00;17.75
20157;PMS5003;10239;56.820;24.416;2024-01-07T08:49:10;23.75;15.50;6.00
20157;PMS5003;10239;56.820;24.416;2024-01-07T08:51:38;30.00;24.75;12.00
20157;PMS5003;10239;56.820;24.416;2024-01-07T08:54:05;20.00;17.75;9.75
20157;PMS5003;10239;56.820;24.416;2024-01-07T08:56:33;17.25;12.50;6.50
20157;PMS5003;10239;56.820;24.416;2024-01-07T08:59:00;24.25;15.75;7.00
20157;PMS5003;10239;56.820;24.416;2024-01-07T09:01:28;19.25;14.50;6.75
20157;PMS5003;10239;56.820;24.416;2024-01-07T09:03:55;11.75;9.50;6.00
20157;PMS5003;10239;56.820;24.416;2024-01-07T09:06:23;21.00;16.00;7.00
20157;PMS5003;10239;56.820;24.416;2024-01-07T09:08:51;20.25;14.50;8.50
20157;PMS5003;10239;56.820;24.416;2024-01-07T09:11:19;24.50;18.50;8.00
20157;PMS5003;10239;56.820;24.416;2024-01-07T09:13:47;19.00;19.00;9.00
20157;PMS5003;10239;56.820;24.416;2024-01-07T09:16:16;14.25;13.50;7.50
20157;PMS5003;10239;56.820;24.416;2024-01-07T09:18:44;32.25;19.00;9.25
20157;PMS5003;10239;56.820;24.416;2024-01-07T09:21:12;20.25;9.75;4.50
20157;PMS5003;10239;56.820;24.416;2024-01-07T09:23:39;18.25;15.00;7.25
20157;PMS5003;10239;56.820;24.416;2024-01-07T09:26:11;8.00;5.00;0.50
20157;PMS5003;10239;56.820;24.416;2024-01-07T09:28:39;12.00;12.00;7.75
20157;PMS5003;10239;56.820;24.416;2024-01-07T09:31:07;18.00;12.50;5.50
20157;PMS5003;10239;56.820;24.416;2024-01-07T09:33:34;15.50;5.75;5.00
20157;PMS5003;10239;56.820;24.416;2024-01-07T09:36:02;19.25;10.50;1.00
20157;PMS5003;10239;56.820;24.416;2024-01-07T09:38:46;19.00;16.75;10.00
20157;PMS5003;10239;56.820;24.416;2024-01-07T09:41:13;51.50;37.00;22.50
20157;PMS5003;10239;56.820;24.416;2024-01-07T09:43:41;30.25;23.00;10.50
20157;PMS5003;10239;56.820;24.416;2024-01-07T09:46:08;17.00;17.00;9.25
20157;PMS5003;10239;56.820;24.416;2024-01-07T09:48:37;17.75;14.00;7.00
20157;PMS5003;10239;56.820;24.416;2024-01-07T09:51:06;28.00;21.25;12.00
20157;PMS5003;10239;56.820;24.416;2024-01-07T09:53:35;22.50;18.50;9.75
20157;PMS5003;10239;56.820;24.416;2024-01-07T09:56:15;17.00;16.00;7.50
20157;PMS5003;10239;56.820;24.416;2024-01-07T09:58:51;15.50;13.00;9.00
20157;PMS5003;10239;56.820;24.416;2024-01-07T10:01:19;27.75;26.50;12.00
20157;PMS5003;10239;56.820;24.416;2024-01-07T10:03:47;40.50;26.25;12.75
20157;PMS5003;10239;56.820;24.416;2024-01-07T10:06:17;21.75;18.25;7.50
20157;PMS5003;10239;56.820;24.416;2024-01-07T10:08:46;30.25;20.00;10.00
20157;PMS5003;10239;56.820;24.416;2024-01-07T10:11:13;21.00;18.25;9.00
20157;PMS5003;10239;56.820;24.416;2024-01-07T10:13:41;11.75;11.75;3.75
20157;PMS5003;10239;56.820;24.416;2024-01-07T10:16:11;21.25;16.00;6.25
20157;PMS5003;10239;56.820;24.416;2024-01-07T10:18:38;8.00;5.75;0.50
20157;PMS5003;10239;56.820;24.416;2024-01-07T10:21:06;16.00;11.75;6.00
20157;PMS5003;10239;56.820;24.416;2024-01-07T10:23:34;24.00;21.00;10.00
20157;PMS5003;10239;56.820;24.416;2024-01-07T10:26:01;15.25;15.25;8.00
20157;PMS5003;10239;56.820;24.416;2024-01-07T10:28:41;10.00;8.75;0.00
20157;PMS5003;10239;56.820;24.416;2024-01-07T10:31:10;12.00;10.25;5.50
20157;PMS5003;10239;56.820;24.416;2024-01-07T10:33:38;16.00;10.00;6.50
20157;PMS5003;10239;56.820;24.416;2024-01-07T10:36:07;23.00;12.50;6.75
20157;PMS5003;10239;56.820;24.416;2024-01-07T10:38:36;23.75;18.50;9.00
20157;PMS5003;10239;56.820;24.416;2024-01-07T10:41:08;26.50;16.00;9.00
20157;PMS5003;10239;56.820;24.416;2024-01-07T10:43:38;18.75;12.50;7.00
20157;PMS5003;10239;56.820;24.416;2024-01-07T10:46:07;25.50;17.25;9.00
20157;PMS5003;10239;56.820;24.416;2024-01-07T10:48:37;22.25;18.50;6.00
20157;PMS5003;10239;56.820;24.416;2024-01-07T10:51:05;21.00;17.75;11.00
20157;PMS5003;10239;56.820;24.416;2024-01-07T10:53:34;22.25;18.00;10.00
20157;PMS5003;10239;56.820;24.416;2024-01-07T10:56:10;29.50;22.00;10.50
20157;PMS5003;10239;56.820;24.416;2024-01-07T10:58:46;21.75;16.75;7.00
20157;PMS5003;10239;56.820;24.416;2024-01-07T11:01:14;15.75;15.25;9.00
20157;PMS5003;10239;56.820;24.416;2024-01-07T11:09:10;12.25;8.50;4.00
20157;PMS5003;10239;56.820;24.416;2024-01-07T11:11:42;24.00;17.00;9.25
20157;PMS5003;10239;56.820;24.416;2024-01-07T11:14:55;17.50;11.25;5.50
20157;PMS5003;10239;56.820;24.416;2024-01-07T11:17:12;9.75;9.75;6.00
20157;PMS5003;10239;56.820;24.416;2024-01-07T11:19:49;8.00;8.00;4.50
20157;PMS5003;10239;56.820;24.416;2024-01-07T11:22:24;17.00;9.75;3.50
20157;PMS5003;10239;56.820;24.416;2024-01-07T11:24:56;15.25;11.00;6.25
20157;PMS5003;10239;56.820;24.416;2024-01-07T11:27:25;20.50;11.50;6.00
20157;PMS5003;10239;56.820;24.416;2024-01-07T11:32:30;12.25;8.00;3.00
20157;PMS5003;10239;56.820;24.416;2024-01-07T11:34:57;11.50;9.50;4.00
20157;PMS5003;10239;56.820;24.416;2024-01-07T11:37:26;6.50;6.25;3.25
20157;PMS5003;10239;56.820;24.416;2024-01-07T11:39:57;14.00;6.75;2.50
20157;PMS5003;10239;56.820;24.416;2024-01-07T11:42:25;16.75;10.00;4.00
20157;PMS5003;10239;56.820;24.416;2024-01-07T11:44:53;11.75;7.50;3.50
20157;PMS5003;10239;56.820;24.416;2024-01-07T11:47:22;4.00;4.00;2.50
20157;PMS5003;10239;56.820;24.416;2024-01-07T11:49:50;11.00;6.25;3.00
20157;PMS5003;10239;56.820;24.416;2024-01-07T11:52:18;6.75;5.00;3.00
20157;PMS5003;10239;56.820;24.416;2024-01-07T11:54:47;8.00;6.00;1.00
20157;PMS5003;10239;56.820;24.416;2024-01-07T11:57:15;13.75;9.25;3.25
20157;PMS5003;10239;56.820;24.416;2024-01-07T11:59:43;6.25;4.00;3.00
20157;PMS5003;10239;56.820;24.416;2024-01-07T12:02:11;6.00;3.00;1.00
20157;PMS5003;10239;56.820;24.416;2024-01-07T12:04:38;8.00;6.00;1.00
20157;PMS5003;10239;56.820;24.416;2024-01-07T12:07:06;6.50;3.75;1.50
20157;PMS5003;10239;56.820;24.416;2024-01-07T12:09:34;5.25;3.00;1.00
20157;PMS5003;10239;56.820;24.416;2024-01-07T12:12:01;9.75;8.50;2.00
20157;PMS5003;10239;56.820;24.416;2024-01-07T12:14:30;4.75;4.50;3.00
20157;PMS5003;10239;56.820;24.416;2024-01-07T12:16:58;4.75;3.50;1.00
20157;PMS5003;10239;56.820;24.416;2024-01-07T12:19:28;2.25;1.00;0.00
20157;PMS5003;10239;56.820;24.416;2024-01-07T12:22:03;4.50;3.75;0.75
20157;PMS5003;10239;56.820;24.416;2024-01-07T12:24:33;2.50;2.50;0.00
20157;PMS5003;10239;56.820;24.416;2024-01-07T12:27:05;6.75;6.00;1.00
20157;PMS5003;10239;56.820;24.416;2024-01-07T12:29:33;9.00;4.00;3.00
20157;PMS5003;10239;56.820;24.416;2024-01-07T12:32:01;3.00;3.00;0.75
20157;PMS5003;10239;56.820;24.416;2024-01-07T12:34:30;0.00;0.00;0.00
20157;PMS5003;10239;56.820;24.416;2024-01-07T12:36:58;6.25;3.00;2.50
20157;PMS5003;10239;56.820;24.416;2024-01-07T12:39:26;3.25;3.25;1.00
20157;PMS5003;10239;56.820;24.416;2024-01-07T12:41:54;9.75;6.00;2.50
20157;PMS5003;10239;56.820;24.416;2024-01-07T12:44:26;4.00;3.00;0.75
20157;PMS5003;10239;56.820;24.416;2024-01-07T12:46:54;1.00;1.00;1.00
20157;PMS5003;10239;56.820;24.416;2024-01-07T12:49:22;4.25;3.00;1.00
20157;PMS5003;10239;56.820;24.416;2024-01-07T12:51:50;6.00;1.00;0.75
20157;PMS5003;10239;56.820;24.416;2024-01-07T12:54:18;2.00;1.50;0.00
20157;PMS5003;10239;56.820;24.416;2024-01-07T12:56:46;3.25;3.25;1.50
20157;PMS5003;10239;56.820;24.416;2024-01-07T12:59:13;4.00;4.00;2.50
20157;PMS5003;10239;56.820;24.416;2024-01-07T13:01:41;4.00;1.00;0.00
20157;PMS5003;10239;56.820;24.416;2024-01-07T13:04:10;1.00;1.00;0.00
20157;PMS5003;10239;56.820;24.416;2024-01-07T13:06:38;3.00;3.00;1.00
20157;PMS5003;10239;56.820;24.416;2024-01-07T13:09:06;4.00;1.00;1.00
20157;PMS5003;10239;56.820;24.416;2024-01-07T13:11:33;4.00;3.00;1.00
20157;PMS5003;10239;56.820;24.416;2024-01-07T13:14:00;6.00;1.00;0.00
20157;PMS5003;10239;56.820;24.416;2024-01-07T13:16:29;8.33;3.00;1.00
20157;PMS5003;10239;56.820;24.416;2024-01-07T13:18:56;0.67;0.67;0.33
20157;PMS5003;10239;56.820;24.416;2024-01-07T13:21:24;5.00;3.00;1.00
20157;PMS5003;10239;56.820;24.416;2024-01-07T13:23:52;5.50;3.50;2.00
20157;PMS5003;10239;56.820;24.416;2024-01-07T13:26:19;6.75;4.00;3.00
20157;PMS5003;10239;56.820;24.416;2024-01-07T13:28:47;3.25;1.00;0.00
20157;PMS5003;10239;56.820;24.416;2024-01-07T13:31:15;6.00;6.00;1.00
20157;PMS5003;10239;56.820;24.416;2024-01-07T13:33:43;2.50;2.50;1.00
20157;PMS5003;10239;56.820;24.416;2024-01-07T13:36:11;4.00;4.00;1.00
20157;PMS5003;10239;56.820;24.416;2024-01-07T13:38:40;7.67;7.00;3.67
20157;PMS5003;10239;56.820;24.416;2024-01-07T13:41:11;3.00;3.00;1.00
20157;PMS5003;10239;56.820;24.416;2024-01-07T13:43:41;10.67;4.67;3.33
20157;PMS5003;10239;56.820;24.416;2024-01-07T13:46:08;6.00;4.00;1.00
20157;PMS5003;10239;56.820;24.416;2024-01-07T13:48:36;4.00;1.00;0.00
20157;PMS5003;10239;56.820;24.416;2024-01-07T13:51:06;4.00;4.00;3.00
20157;PMS5003;10239;56.820;24.416;2024-01-07T13:53:34;6.67;5.33;3.00
20157;PMS5003;10239;56.820;24.416;2024-01-07T13:56:02;4.00;4.00;1.00
20157;PMS5003;10239;56.820;24.416;2024-01-07T13:58:30;4.67;4.67;1.67
20157;PMS5003;10239;56.820;24.416;2024-01-07T14:00:57;4.67;3.00;0.00
20157;PMS5003;10239;56.820;24.416;2024-01-07T14:03:25;3.00;3.00;1.00
20157;PMS5003;10239;56.820;24.416;2024-01-07T14:05:53;3.00;3.00;1.00
20157;PMS5003;10239;56.820;24.416;2024-01-07T14:08:21;4.33;1.67;0.00
20157;PMS5003;10239;56.820;24.416;2024-01-07T14:10:48;1.00;1.00;0.00
20157;PMS5003;10239;56.820;24.416;2024-01-07T14:13:16;1.67;1.67;1.00
20157;PMS5003;10239;56.820;24.416;2024-01-07T14:15:43;3.00;3.00;1.00
20157;PMS5003;10239;56.820;24.416;2024-01-07T14:18:10;4.00;4.00;3.00